createdAt,value
2023-10-23T04:31:23.142Z,98726.00
2023-10-23T04:34:06.027Z,98720.00
2023-10-23T04:39:35.505Z,98721.00
2023-10-23T04:42:05.164Z,98717.00
2023-10-23T04:44:46.383Z,98725.00
2023-10-23T04:47:36.911Z,98744.00
2023-10-23T04:50:25.930Z,98729.00
2023-10-23T04:53:05.009Z,98728.00
2023-10-23T04:55:57.086Z,98720.00
2023-10-23T04:58:24.408Z,98711.00
2023-10-23T05:00:57.045Z,98729.00
2023-10-23T05:03:41.088Z,98717.00
2023-10-23T05:06:24.814Z,98705.00
2023-10-23T05:09:34.856Z,98710.00
2023-10-23T05:12:12.867Z,98710.00
2023-10-23T05:17:54.745Z,98698.00
2023-10-23T05:20:22.173Z,98696.00
2023-10-23T05:22:56.188Z,98699.00
2023-10-23T05:25:25.636Z,98698.00
2023-10-23T05:28:00.626Z,98687.00
2023-10-23T05:30:32.880Z,98682.00
2023-10-23T05:33:05.392Z,98676.00
2023-10-23T05:35:51.543Z,98682.00
2023-10-23T05:38:33.473Z,98672.00
2023-10-23T05:41:03.797Z,98671.00
2023-10-23T05:43:30.845Z,98669.00
2023-10-23T05:46:10.320Z,98670.00
2023-10-23T05:48:37.888Z,98662.00
2023-10-23T05:51:06.813Z,98672.00
2023-10-23T05:53:35.854Z,98682.00
2023-10-23T05:56:10.723Z,98680.00
2023-10-23T05:58:39.930Z,98673.00
2023-10-23T06:01:08.858Z,98668.00
2023-10-23T06:03:36.492Z,98665.00
2023-10-23T06:06:03.802Z,98666.00
2023-10-23T06:08:30.880Z,98667.00
2023-10-23T06:10:57.654Z,98668.00
2023-10-23T06:13:24.600Z,98676.00
2023-10-23T06:15:52.601Z,98687.00
2023-10-23T06:18:20.858Z,98690.00
2023-10-23T06:20:47.636Z,98694.00
2023-10-23T06:23:14.332Z,98689.00
2023-10-23T06:25:41.293Z,98686.00
2023-10-23T06:28:11.414Z,98694.00
2023-10-23T06:30:38.445Z,98696.00
2023-10-23T06:33:05.227Z,98697.00
2023-10-23T06:35:35.240Z,98701.00
2023-10-23T06:38:02.028Z,98693.00
2023-10-23T06:40:28.875Z,98687.00
2023-10-23T06:42:55.620Z,98693.00
2023-10-23T06:45:22.498Z,98678.00
2023-10-23T06:47:50.427Z,98680.00
2023-10-23T06:50:18.321Z,98674.00
2023-10-23T06:52:46.354Z,98664.00
2023-10-23T06:55:13.957Z,98662.00
2023-10-23T06:57:40.764Z,98663.00
2023-10-23T07:00:08.593Z,98659.00
2023-10-23T07:02:39.175Z,98654.00
2023-10-23T07:05:06.493Z,98656.00
2023-10-23T07:07:33.482Z,98657.00
2023-10-23T07:10:21.765Z,98650.00
2023-10-23T07:12:51.837Z,98660.00
2023-10-23T07:15:23.520Z,98654.00
2023-10-23T07:18:24.351Z,98659.00
2023-10-23T07:21:24.854Z,98660.00
2023-10-23T07:30:33.499Z,98651.00
2023-10-23T07:34:31.223Z,98638.00
2023-10-23T08:03:51.907Z,98638.00
2023-10-23T08:06:46.528Z,98636.00
2023-10-23T08:09:45.464Z,98646.00
2023-10-23T08:15:41.126Z,98678.00
2023-10-23T08:18:30.171Z,98673.00
2023-10-23T08:21:59.428Z,98673.00
2023-10-23T08:24:57.895Z,98674.00
2023-10-23T08:27:27.097Z,98681.00
2023-10-23T08:30:26.071Z,98689.00
2023-10-23T08:36:48.596Z,98677.00
2023-10-23T08:39:15.468Z,98681.00
2023-10-23T08:42:25.524Z,98676.00
2023-10-23T09:22:27.684Z,98665.00
2023-10-23T09:29:30.465Z,98640.00
2023-10-23T09:32:06.379Z,98639.00
2023-10-23T09:40:06.183Z,98603.00
2023-10-23T09:43:34.522Z,98626.00
2023-10-23T09:58:13.397Z,98618.00
2023-10-23T10:02:03.658Z,98627.00
2023-10-23T10:05:01.809Z,98649.00
2023-10-23T10:08:08.046Z,98651.00
2023-10-23T10:14:12.191Z,98647.00
2023-10-23T10:14:14.919Z,98642.00
2023-10-23T10:20:49.207Z,98621.00
2023-10-23T10:23:20.687Z,98585.00
2023-10-23T10:25:48.160Z,98595.00
2023-10-23T10:28:15.910Z,98571.00
2023-10-23T10:30:51.818Z,98572.00
2023-10-23T10:34:26.903Z,98555.00
2023-10-23T10:36:12.895Z,98547.00
2023-10-23T10:38:39.727Z,98535.00
2023-10-23T10:41:16.452Z,98520.00
2023-10-23T10:43:51.387Z,98539.00
2023-10-23T10:46:30.165Z,98525.00
2023-10-23T10:48:57.490Z,98529.00
2023-10-23T10:51:27.291Z,98516.00
2023-10-23T10:54:04.725Z,98516.00
2023-10-23T10:56:39.281Z,98506.00
2023-10-23T10:59:06.765Z,98536.00
2023-10-23T11:01:34.466Z,98557.00
2023-10-23T11:04:02.637Z,98584.00
2023-10-23T11:06:30.858Z,98580.00
2023-10-23T11:08:59.717Z,98599.00
2023-10-23T11:11:28.267Z,98610.00
2023-10-23T11:13:55.688Z,98595.00
2023-10-23T11:16:22.611Z,98570.00
2023-10-23T11:18:49.501Z,98569.00
2023-10-23T11:21:23.148Z,98586.00
2023-10-23T11:23:53.005Z,98574.00
2023-10-23T11:26:19.762Z,98554.00
2023-10-23T11:28:46.614Z,98544.00
2023-10-23T11:31:22.701Z,98528.00
2023-10-23T11:33:56.352Z,98513.00
2023-10-23T11:36:37.227Z,98494.00
2023-10-23T11:39:14.673Z,98486.00
2023-10-23T11:41:41.655Z,98464.00
2023-10-23T11:44:42.525Z,98464.00
2023-10-23T11:47:17.254Z,98452.00
2023-10-23T11:49:56.991Z,98456.00
2023-10-23T11:52:23.921Z,98456.00
2023-10-23T11:54:50.770Z,98472.00
2023-10-23T11:57:17.967Z,98466.00
2023-10-23T11:59:51.369Z,98468.00
2023-10-23T12:02:21.254Z,98468.00
2023-10-23T12:09:08.912Z,98435.00
2023-10-23T12:11:39.701Z,98397.00
2023-10-23T12:14:20.536Z,98366.00
2023-10-23T12:16:47.460Z,98334.00
2023-10-23T12:19:14.266Z,98319.00
2023-10-23T12:21:41.114Z,98321.00
2023-10-23T12:24:08.753Z,98331.00
2023-10-23T12:26:35.509Z,98332.00
2023-10-23T12:29:06.261Z,98325.00
2023-10-23T12:32:01.599Z,98327.00
2023-10-23T12:34:21.324Z,98322.00
2023-10-23T12:36:48.474Z,98328.00
2023-10-23T12:39:15.308Z,98326.00
2023-10-23T12:41:42.026Z,98318.00
2023-10-23T12:44:08.737Z,98302.00
2023-10-23T12:46:35.640Z,98292.00
2023-10-23T12:49:02.989Z,98268.00
2023-10-23T12:51:30.044Z,98280.00
2023-10-23T12:53:56.927Z,98248.00
2023-10-23T12:56:23.730Z,98228.00
2023-10-23T12:58:58.942Z,98245.00
2023-10-23T13:01:25.958Z,98243.00
2023-10-23T13:03:52.836Z,98233.00
2023-10-23T13:06:19.633Z,98238.00
2023-10-23T13:08:46.659Z,98243.00
2023-10-23T13:11:13.530Z,98234.00
2023-10-23T13:13:40.241Z,98238.00
2023-10-23T13:16:07.047Z,98219.00
2023-10-23T13:18:34.090Z,98224.00
2023-10-23T13:21:30.089Z,98203.00
2023-10-23T13:23:51.395Z,98204.00
2023-10-23T13:26:18.354Z,98197.00
2023-10-23T13:28:47.935Z,98197.00
2023-10-23T13:31:16.504Z,98189.00
2023-10-23T13:33:43.349Z,98188.00
2023-10-23T13:36:10.853Z,98169.00
2023-10-23T13:38:38.679Z,98162.00
2023-10-23T13:41:07.045Z,98191.00
2023-10-23T13:43:34.378Z,98169.00
2023-10-23T13:46:01.928Z,98180.00
2023-10-23T13:48:28.668Z,98180.00
2023-10-23T13:50:55.565Z,98158.00
2023-10-23T13:53:24.005Z,98145.00
2023-10-23T13:55:52.576Z,98151.00
2023-10-23T13:58:19.857Z,98141.00
2023-10-23T14:00:48.638Z,98115.00
2023-10-23T14:03:15.546Z,98148.00
2023-10-23T14:05:43.186Z,98158.00
2023-10-23T14:08:10.056Z,98137.00
2023-10-23T14:10:37.223Z,98135.00
2023-10-23T14:13:04.203Z,98165.00
2023-10-23T14:15:30.985Z,98185.00
2023-10-23T14:17:57.754Z,98165.00
2023-10-23T14:20:26.627Z,98164.00
2023-10-23T14:22:54.815Z,98164.00
2023-10-23T14:25:21.848Z,98142.00
2023-10-23T14:27:48.945Z,98138.00
2023-10-23T14:30:15.771Z,98125.00
2023-10-23T14:32:43.454Z,98101.00
2023-10-23T14:35:11.238Z,98115.00
2023-10-23T14:37:38.301Z,98091.00
2023-10-23T14:40:06.806Z,98050.00
2023-10-23T14:42:33.666Z,98026.00
2023-10-23T14:45:00.420Z,98039.00
2023-10-23T14:47:27.261Z,98058.00
2023-10-23T14:49:55.012Z,98027.00
2023-10-23T14:52:21.907Z,98011.00
2023-10-23T14:54:48.722Z,98014.00
2023-10-23T14:57:22.151Z,98033.00
2023-10-23T14:59:50.204Z,98031.00
2023-10-23T15:02:23.329Z,98050.00
2023-10-23T15:05:15.233Z,98050.00
2023-10-23T15:08:08.276Z,98043.00
2023-10-23T15:10:47.863Z,98054.00
2023-10-23T15:13:17.371Z,98055.00
2023-10-23T15:15:49.314Z,98041.00
2023-10-23T15:18:16.517Z,98015.00
2023-10-23T15:20:43.401Z,98013.00
2023-10-23T15:23:13.277Z,98031.00
2023-10-23T15:25:43.225Z,98033.00
2023-10-23T15:28:10.036Z,98018.00
2023-10-23T15:30:36.990Z,98017.00
2023-10-23T15:33:07.992Z,98022.00
2023-10-23T15:35:37.383Z,98018.00
2023-10-23T15:38:06.437Z,98033.00
2023-10-23T15:40:41.615Z,98032.00
2023-10-23T15:43:16.046Z,98018.00
2023-10-23T15:45:45.536Z,98023.00
2023-10-23T15:48:21.394Z,98052.00
2023-10-23T15:50:52.407Z,98046.00
2023-10-23T15:53:23.996Z,98060.00
2023-10-23T15:55:51.148Z,98096.00
2023-10-23T15:58:23.894Z,98083.00
2023-10-23T16:00:55.257Z,98085.00
2023-10-23T16:03:28.013Z,98101.00
2023-10-23T16:05:55.203Z,98065.00
2023-10-23T16:08:22.285Z,98024.00
2023-10-23T16:10:54.553Z,98073.00
2023-10-23T16:13:39.078Z,98093.00
2023-10-23T16:16:16.616Z,98059.00
2023-10-23T16:18:45.537Z,98084.00
2023-10-23T16:59:11.359Z,98100.00
2023-10-23T17:07:03.407Z,98054.00
2023-10-23T19:20:34.201Z,98215.00
2023-10-23T19:23:10.073Z,98182.00
2023-10-23T19:27:47.397Z,98177.00
2023-10-23T20:03:55.979Z,98314.00
2023-10-23T20:06:44.372Z,98289.00
2023-10-23T20:09:45.300Z,98257.00
2023-10-23T20:13:26.085Z,98237.00
2023-10-23T20:19:51.227Z,98196.00
2023-10-23T20:22:52.002Z,98156.00
2023-10-23T20:25:31.968Z,98151.00
2023-10-23T20:28:55.652Z,98160.00
2023-10-23T20:55:43.794Z,98256.00
2023-10-23T20:58:11.142Z,98259.00
2023-10-23T21:00:43.710Z,98243.00
2023-10-23T21:03:21.901Z,98219.00
2023-10-23T21:06:03.516Z,98224.00
2023-10-23T21:08:49.696Z,98212.00
2023-10-23T21:11:47.353Z,98209.00
2023-10-23T21:14:22.473Z,98215.00
2023-10-23T21:16:57.134Z,98215.00
2023-10-23T21:19:24.246Z,98240.00
2023-10-23T21:21:52.454Z,98242.00
2023-10-23T21:24:19.438Z,98230.00
2023-10-23T21:27:13.045Z,98229.00
2023-10-23T21:29:43.397Z,98250.00
2023-10-23T21:32:22.494Z,98248.00
2023-10-23T21:34:51.990Z,98219.00
2023-10-23T21:37:19.074Z,98219.00
2023-10-23T21:39:46.115Z,98200.00
2023-10-23T21:42:12.977Z,98183.00
2023-10-23T21:44:40.354Z,98187.00
2023-10-23T21:47:10.236Z,98172.00
2023-10-23T21:49:50.534Z,98148.00
2023-10-23T21:53:07.184Z,98170.00
2023-10-23T21:56:09.032Z,98151.00
2023-10-23T22:04:45.618Z,98148.00
2023-10-23T22:34:13.635Z,98198.00
2023-10-23T23:46:22.457Z,98176.00
2023-10-23T23:50:08.859Z,98178.00
